sensor_id;sensor_type;location;lat;lon;timestamp;P1;durP1;ratioP1;P2;durP2;ratioP2
57567;SDS011;43403;51.948;5.922;2024-03-08T00:00:59;34.15;;;18.38;;
57567;SDS011;43403;51.948;5.922;2024-03-08T00:03:26;25.10;;;15.32;;
57567;SDS011;43403;51.948;5.922;2024-03-08T00:05:53;27.77;;;15.75;;
57567;SDS011;43403;51.948;5.922;2024-03-08T00:08:19;29.40;;;16.15;;
57567;SDS011;43403;51.948;5.922;2024-03-08T00:10:46;29.02;;;16.33;;
57567;SDS011;43403;51.948;5.922;2024-03-08T00:13:12;29.52;;;15.98;;
57567;SDS011;43403;51.948;5.922;2024-03-08T00:15:39;28.15;;;15.95;;
57567;SDS011;43403;51.948;5.922;2024-03-08T00:18:07;29.13;;;15.68;;
57567;SDS011;43403;51.948;5.922;2024-03-08T00:20:34;30.55;;;16.98;;
57567;SDS011;43403;51.948;5.922;2024-03-08T00:23:00;33.10;;;15.40;;
57567;SDS011;43403;51.948;5.922;2024-03-08T00:25:26;32.28;;;17.58;;
57567;SDS011;43403;51.948;5.922;2024-03-08T00:27:53;33.28;;;15.98;;
57567;SDS011;43403;51.948;5.922;2024-03-08T00:30:22;28.42;;;15.68;;
57567;SDS011;43403;51.948;5.922;2024-03-08T00:32:49;29.42;;;15.98;;
57567;SDS011;43403;51.948;5.922;2024-03-08T00:35:16;28.60;;;16.15;;
57567;SDS011;43403;51.948;5.922;2024-03-08T00:37:42;26.30;;;15.32;;
57567;SDS011;43403;51.948;5.922;2024-03-08T00:40:09;27.08;;;15.27;;
57567;SDS011;43403;51.948;5.922;2024-03-08T00:42:36;27.35;;;16.15;;
57567;SDS011;43403;51.948;5.922;2024-03-08T00:45:04;30.10;;;16.15;;
57567;SDS011;43403;51.948;5.922;2024-03-08T00:47:31;25.55;;;15.15;;
57567;SDS011;43403;51.948;5.922;2024-03-08T00:49:57;24.77;;;15.50;;
57567;SDS011;43403;51.948;5.922;2024-03-08T00:52:24;26.40;;;15.65;;
57567;SDS011;43403;51.948;5.922;2024-03-08T00:54:50;27.90;;;16.50;;
57567;SDS011;43403;51.948;5.922;2024-03-08T00:57:16;27.95;;;16.38;;
57567;SDS011;43403;51.948;5.922;2024-03-08T00:59:43;27.40;;;15.65;;
57567;SDS011;43403;51.948;5.922;2024-03-08T01:02:09;26.00;;;15.18;;
57567;SDS011;43403;51.948;5.922;2024-03-08T01:04:37;30.88;;;15.10;;
57567;SDS011;43403;51.948;5.922;2024-03-08T01:07:03;26.65;;;15.52;;
57567;SDS011;43403;51.948;5.922;2024-03-08T01:09:29;25.15;;;14.88;;
57567;SDS011;43403;51.948;5.922;2024-03-08T01:11:56;28.17;;;15.02;;
57567;SDS011;43403;51.948;5.922;2024-03-08T01:14:23;27.55;;;15.98;;
57567;SDS011;43403;51.948;5.922;2024-03-08T01:16:49;26.42;;;15.52;;
57567;SDS011;43403;51.948;5.922;2024-03-08T01:19:16;24.17;;;14.25;;
57567;SDS011;43403;51.948;5.922;2024-03-08T01:21:42;26.88;;;15.07;;
57567;SDS011;43403;51.948;5.922;2024-03-08T01:24:08;27.15;;;15.35;;
57567;SDS011;43403;51.948;5.922;2024-03-08T01:26:37;28.42;;;16.42;;
57567;SDS011;43403;51.948;5.922;2024-03-08T01:29:05;27.00;;;15.05;;
57567;SDS011;43403;51.948;5.922;2024-03-08T01:31:31;26.95;;;16.83;;
57567;SDS011;43403;51.948;5.922;2024-03-08T01:33:58;30.88;;;16.50;;
57567;SDS011;43403;51.948;5.922;2024-03-08T01:36:25;25.15;;;15.30;;
57567;SDS011;43403;51.948;5.922;2024-03-08T01:38:51;27.80;;;16.00;;
57567;SDS011;43403;51.948;5.922;2024-03-08T01:41:18;27.40;;;16.17;;
57567;SDS011;43403;51.948;5.922;2024-03-08T01:43:45;26.70;;;15.60;;
57567;SDS011;43403;51.948;5.922;2024-03-08T01:46:13;26.60;;;13.95;;
57567;SDS011;43403;51.948;5.922;2024-03-08T01:48:41;27.33;;;16.27;;
57567;SDS011;43403;51.948;5.922;2024-03-08T01:51:08;25.02;;;15.73;;
57567;SDS011;43403;51.948;5.922;2024-03-08T01:53:35;26.83;;;16.55;;
57567;SDS011;43403;51.948;5.922;2024-03-08T01:56:01;24.50;;;14.80;;
57567;SDS011;43403;51.948;5.922;2024-03-08T01:58:29;31.27;;;16.73;;
57567;SDS011;43403;51.948;5.922;2024-03-08T02:00:56;28.90;;;17.13;;
57567;SDS011;43403;51.948;5.922;2024-03-08T02:03:23;26.27;;;15.75;;
57567;SDS011;43403;51.948;5.922;2024-03-08T02:05:49;28.73;;;15.90;;
57567;SDS011;43403;51.948;5.922;2024-03-08T02:08:17;27.98;;;15.55;;
57567;SDS011;43403;51.948;5.922;2024-03-08T02:10:44;27.30;;;16.98;;
57567;SDS011;43403;51.948;5.922;2024-03-08T02:13:11;28.45;;;17.58;;
57567;SDS011;43403;51.948;5.922;2024-03-08T02:16:11;28.02;;;18.10;;
57567;SDS011;43403;51.948;5.922;2024-03-08T02:18:34;26.85;;;16.35;;
57567;SDS011;43403;51.948;5.922;2024-03-08T02:21:02;27.55;;;17.25;;
57567;SDS011;43403;51.948;5.922;2024-03-08T02:23:29;28.00;;;18.15;;
57567;SDS011;43403;51.948;5.922;2024-03-08T02:25:56;30.27;;;17.08;;
57567;SDS011;43403;51.948;5.922;2024-03-08T02:28:23;30.80;;;17.60;;
57567;SDS011;43403;51.948;5.922;2024-03-08T02:30:51;26.98;;;15.77;;
57567;SDS011;43403;51.948;5.922;2024-03-08T02:33:21;30.65;;;17.70;;
57567;SDS011;43403;51.948;5.922;2024-03-08T02:35:48;29.02;;;17.75;;
57567;SDS011;43403;51.948;5.922;2024-03-08T02:38:15;24.30;;;16.33;;
57567;SDS011;43403;51.948;5.922;2024-03-08T02:40:45;29.00;;;17.95;;
57567;SDS011;43403;51.948;5.922;2024-03-08T02:43:12;29.98;;;17.48;;
57567;SDS011;43403;51.948;5.922;2024-03-08T02:45:39;28.00;;;17.15;;
57567;SDS011;43403;51.948;5.922;2024-03-08T02:48:05;24.55;;;15.90;;
57567;SDS011;43403;51.948;5.922;2024-03-08T02:50:34;26.00;;;16.48;;
57567;SDS011;43403;51.948;5.922;2024-03-08T02:53:01;27.70;;;16.15;;
57567;SDS011;43403;51.948;5.922;2024-03-08T02:55:28;27.45;;;18.63;;
57567;SDS011;43403;51.948;5.922;2024-03-08T02:57:54;26.58;;;17.13;;
57567;SDS011;43403;51.948;5.922;2024-03-08T03:00:21;27.08;;;17.08;;
57567;SDS011;43403;51.948;5.922;2024-03-08T03:02:49;25.92;;;17.02;;
57567;SDS011;43403;51.948;5.922;2024-03-08T03:05:23;28.83;;;17.08;;
57567;SDS011;43403;51.948;5.922;2024-03-08T03:07:50;23.67;;;16.08;;
57567;SDS011;43403;51.948;5.922;2024-03-08T03:10:17;26.85;;;17.50;;
57567;SDS011;43403;51.948;5.922;2024-03-08T03:12:44;25.95;;;16.50;;
57567;SDS011;43403;51.948;5.922;2024-03-08T03:15:12;26.55;;;17.55;;
57567;SDS011;43403;51.948;5.922;2024-03-08T03:17:39;24.60;;;16.38;;
57567;SDS011;43403;51.948;5.922;2024-03-08T03:20:07;28.88;;;18.23;;
57567;SDS011;43403;51.948;5.922;2024-03-08T03:22:39;27.58;;;16.70;;
57567;SDS011;43403;51.948;5.922;2024-03-08T03:25:07;26.67;;;16.73;;
57567;SDS011;43403;51.948;5.922;2024-03-08T03:30:03;30.88;;;17.88;;
57567;SDS011;43403;51.948;5.922;2024-03-08T03:32:50;28.27;;;16.95;;
57567;SDS011;43403;51.948;5.922;2024-03-08T03:35:18;26.98;;;16.35;;
57567;SDS011;43403;51.948;5.922;2024-03-08T03:37:44;29.25;;;17.63;;
57567;SDS011;43403;51.948;5.922;2024-03-08T03:40:17;28.10;;;17.05;;
57567;SDS011;43403;51.948;5.922;2024-03-08T03:42:46;29.35;;;18.45;;
57567;SDS011;43403;51.948;5.922;2024-03-08T03:45:13;27.00;;;17.38;;
57567;SDS011;43403;51.948;5.922;2024-03-08T03:47:42;27.00;;;17.27;;
57567;SDS011;43403;51.948;5.922;2024-03-08T03:52:36;28.92;;;17.50;;
57567;SDS011;43403;51.948;5.922;2024-03-08T03:55:02;29.73;;;17.67;;
57567;SDS011;43403;51.948;5.922;2024-03-08T03:57:31;28.52;;;17.55;;
57567;SDS011;43403;51.948;5.922;2024-03-08T03:59:58;28.40;;;17.80;;
57567;SDS011;43403;51.948;5.922;2024-03-08T04:02:25;30.80;;;19.00;;
57567;SDS011;43403;51.948;5.922;2024-03-08T04:04:52;30.73;;;16.88;;
57567;SDS011;43403;51.948;5.922;2024-03-08T04:07:21;29.67;;;17.90;;
57567;SDS011;43403;51.948;5.922;2024-03-08T04:09:47;33.55;;;19.15;;
57567;SDS011;43403;51.948;5.922;2024-03-08T04:12:14;29.45;;;18.42;;
57567;SDS011;43403;51.948;5.922;2024-03-08T04:14:42;29.57;;;18.33;;
57567;SDS011;43403;51.948;5.922;2024-03-08T04:17:08;22.50;;;15.38;;
57567;SDS011;43403;51.948;5.922;2024-03-08T04:19:35;32.83;;;19.40;;
57567;SDS011;43403;51.948;5.922;2024-03-08T04:22:01;28.95;;;18.52;;
57567;SDS011;43403;51.948;5.922;2024-03-08T04:24:28;30.33;;;18.45;;
57567;SDS011;43403;51.948;5.922;2024-03-08T04:26:57;27.98;;;17.52;;
57567;SDS011;43403;51.948;5.922;2024-03-08T04:29:24;27.67;;;18.27;;
57567;SDS011;43403;51.948;5.922;2024-03-08T04:31:50;30.27;;;17.75;;
57567;SDS011;43403;51.948;5.922;2024-03-08T04:34:23;28.70;;;18.25;;
57567;SDS011;43403;51.948;5.922;2024-03-08T04:36:50;27.48;;;18.10;;
57567;SDS011;43403;51.948;5.922;2024-03-08T04:39:16;29.55;;;18.85;;
57567;SDS011;43403;51.948;5.922;2024-03-08T04:41:44;28.90;;;16.92;;
57567;SDS011;43403;51.948;5.922;2024-03-08T04:44:11;28.92;;;17.65;;
57567;SDS011;43403;51.948;5.922;2024-03-08T04:46:39;27.13;;;17.05;;
57567;SDS011;43403;51.948;5.922;2024-03-08T04:49:05;28.92;;;18.10;;
57567;SDS011;43403;51.948;5.922;2024-03-08T04:51:33;30.75;;;17.92;;
57567;SDS011;43403;51.948;5.922;2024-03-08T04:54:00;33.05;;;18.98;;
57567;SDS011;43403;51.948;5.922;2024-03-08T04:56:26;29.25;;;18.38;;
57567;SDS011;43403;51.948;5.922;2024-03-08T04:58:53;29.35;;;17.35;;
57567;SDS011;43403;51.948;5.922;2024-03-08T05:01:19;26.05;;;16.15;;
57567;SDS011;43403;51.948;5.922;2024-03-08T05:03:46;28.63;;;17.45;;
57567;SDS011;43403;51.948;5.922;2024-03-08T05:06:14;32.65;;;18.73;;
57567;SDS011;43403;51.948;5.922;2024-03-08T05:08:41;28.77;;;18.08;;
57567;SDS011;43403;51.948;5.922;2024-03-08T05:11:07;32.03;;;18.25;;
57567;SDS011;43403;51.948;5.922;2024-03-08T05:13:34;31.63;;;18.90;;
57567;SDS011;43403;51.948;5.922;2024-03-08T05:16:00;29.25;;;19.00;;
57567;SDS011;43403;51.948;5.922;2024-03-08T05:18:27;27.70;;;18.00;;
57567;SDS011;43403;51.948;5.922;2024-03-08T05:20:58;29.65;;;17.75;;
57567;SDS011;43403;51.948;5.922;2024-03-08T05:23:25;33.03;;;18.15;;
57567;SDS011;43403;51.948;5.922;2024-03-08T05:25:51;26.65;;;16.00;;
57567;SDS011;43403;51.948;5.922;2024-03-08T05:28:17;29.83;;;17.02;;
57567;SDS011;43403;51.948;5.922;2024-03-08T05:30:44;28.05;;;18.20;;
57567;SDS011;43403;51.948;5.922;2024-03-08T05:33:10;27.73;;;18.00;;
57567;SDS011;43403;51.948;5.922;2024-03-08T05:35:37;27.02;;;16.73;;
57567;SDS011;43403;51.948;5.922;2024-03-08T05:38:04;30.23;;;17.23;;
57567;SDS011;43403;51.948;5.922;2024-03-08T05:40:30;31.38;;;18.27;;
57567;SDS011;43403;51.948;5.922;2024-03-08T05:42:58;30.80;;;19.10;;
57567;SDS011;43403;51.948;5.922;2024-03-08T05:45:25;28.33;;;18.58;;
57567;SDS011;43403;51.948;5.922;2024-03-08T05:47:52;31.63;;;18.90;;
57567;SDS011;43403;51.948;5.922;2024-03-08T05:50:18;30.08;;;18.75;;
57567;SDS011;43403;51.948;5.922;2024-03-08T05:52:45;28.23;;;17.27;;
57567;SDS011;43403;51.948;5.922;2024-03-08T05:55:13;29.73;;;17.20;;
57567;SDS011;43403;51.948;5.922;2024-03-08T05:57:41;29.00;;;18.83;;
57567;SDS011;43403;51.948;5.922;2024-03-08T06:00:08;34.38;;;19.17;;
57567;SDS011;43403;51.948;5.922;2024-03-08T06:02:38;32.15;;;18.60;;
57567;SDS011;43403;51.948;5.922;2024-03-08T06:05:08;29.13;;;17.38;;
57567;SDS011;43403;51.948;5.922;2024-03-08T06:07:35;29.52;;;18.60;;
57567;SDS011;43403;51.948;5.922;2024-03-08T06:10:01;28.38;;;18.20;;
57567;SDS011;43403;51.948;5.922;2024-03-08T06:12:28;31.45;;;19.48;;
57567;SDS011;43403;51.948;5.922;2024-03-08T06:14:59;29.20;;;18.55;;
57567;SDS011;43403;51.948;5.922;2024-03-08T06:17:25;30.45;;;18.92;;
57567;SDS011;43403;51.948;5.922;2024-03-08T06:19:52;34.85;;;19.55;;
57567;SDS011;43403;51.948;5.922;2024-03-08T06:22:18;32.50;;;18.70;;
57567;SDS011;43403;51.948;5.922;2024-03-08T06:24:46;32.00;;;17.92;;
57567;SDS011;43403;51.948;5.922;2024-03-08T06:27:13;34.38;;;19.85;;
57567;SDS011;43403;51.948;5.922;2024-03-08T06:29:40;32.47;;;18.70;;
57567;SDS011;43403;51.948;5.922;2024-03-08T06:32:06;28.58;;;18.35;;
57567;SDS011;43403;51.948;5.922;2024-03-08T06:34:33;30.42;;;18.30;;
57567;SDS011;43403;51.948;5.922;2024-03-08T06:37:01;31.52;;;18.40;;
57567;SDS011;43403;51.948;5.922;2024-03-08T06:39:27;31.92;;;17.90;;
57567;SDS011;43403;51.948;5.922;2024-03-08T06:41:57;29.15;;;18.90;;
57567;SDS011;43403;51.948;5.922;2024-03-08T06:44:24;34.60;;;20.20;;
57567;SDS011;43403;51.948;5.922;2024-03-08T06:46:51;29.40;;;18.20;;
57567;SDS011;43403;51.948;5.922;2024-03-08T06:49:17;28.40;;;18.17;;
57567;SDS011;43403;51.948;5.922;2024-03-08T06:51:44;32.67;;;19.65;;
57567;SDS011;43403;51.948;5.922;2024-03-08T06:54:11;30.77;;;18.35;;
57567;SDS011;43403;51.948;5.922;2024-03-08T06:56:37;31.73;;;19.92;;
57567;SDS011;43403;51.948;5.922;2024-03-08T06:59:04;31.80;;;19.80;;
57567;SDS011;43403;51.948;5.922;2024-03-08T07:01:30;33.38;;;20.13;;
57567;SDS011;43403;51.948;5.922;2024-03-08T07:04:02;32.97;;;19.80;;
57567;SDS011;43403;51.948;5.922;2024-03-08T07:08:59;31.98;;;20.17;;
57567;SDS011;43403;51.948;5.922;2024-03-08T07:11:26;33.85;;;20.13;;
57567;SDS011;43403;51.948;5.922;2024-03-08T07:13:52;34.10;;;19.17;;
57567;SDS011;43403;51.948;5.922;2024-03-08T07:16:20;33.22;;;20.05;;
57567;SDS011;43403;51.948;5.922;2024-03-08T07:18:47;32.15;;;19.10;;
57567;SDS011;43403;51.948;5.922;2024-03-08T07:21:14;31.50;;;19.05;;
57567;SDS011;43403;51.948;5.922;2024-03-08T07:23:40;31.08;;;19.58;;
57567;SDS011;43403;51.948;5.922;2024-03-08T07:26:20;31.45;;;18.70;;
57567;SDS011;43403;51.948;5.922;2024-03-08T07:28:47;37.28;;;20.15;;
57567;SDS011;43403;51.948;5.922;2024-03-08T07:31:13;33.53;;;19.92;;
57567;SDS011;43403;51.948;5.922;2024-03-08T07:34:09;31.83;;;20.00;;
57567;SDS011;43403;51.948;5.922;2024-03-08T07:36:35;31.85;;;18.13;;
57567;SDS011;43403;51.948;5.922;2024-03-08T07:39:02;32.13;;;19.80;;
57567;SDS011;43403;51.948;5.922;2024-03-08T07:41:29;37.25;;;20.83;;
57567;SDS011;43403;51.948;5.922;2024-03-08T07:43:56;31.25;;;19.45;;
57567;SDS011;43403;51.948;5.922;2024-03-08T07:46:22;33.80;;;19.50;;
57567;SDS011;43403;51.948;5.922;2024-03-08T07:48:49;33.38;;;20.42;;
57567;SDS011;43403;51.948;5.922;2024-03-08T07:51:16;34.47;;;20.42;;
57567;SDS011;43403;51.948;5.922;2024-03-08T07:53:43;32.33;;;19.90;;
57567;SDS011;43403;51.948;5.922;2024-03-08T07:56:10;31.88;;;20.10;;
57567;SDS011;43403;51.948;5.922;2024-03-08T07:58:39;32.80;;;19.70;;
57567;SDS011;43403;51.948;5.922;2024-03-08T08:01:06;35.00;;;20.52;;
57567;SDS011;43403;51.948;5.922;2024-03-08T08:03:33;34.70;;;21.08;;
57567;SDS011;43403;51.948;5.922;2024-03-08T08:05:59;33.80;;;20.75;;
57567;SDS011;43403;51.948;5.922;2024-03-08T08:08:26;37.70;;;20.63;;
57567;SDS011;43403;51.948;5.922;2024-03-08T08:10:52;36.78;;;21.20;;
57567;SDS011;43403;51.948;5.922;2024-03-08T08:13:19;33.03;;;19.77;;
57567;SDS011;43403;51.948;5.922;2024-03-08T08:15:45;34.80;;;20.58;;
57567;SDS011;43403;51.948;5.922;2024-03-08T08:18:12;37.50;;;20.77;;
57567;SDS011;43403;51.948;5.922;2024-03-08T08:20:40;30.27;;;19.83;;
57567;SDS011;43403;51.948;5.922;2024-03-08T08:23:06;29.00;;;19.15;;
57567;SDS011;43403;51.948;5.922;2024-03-08T08:25:33;37.50;;;21.13;;
57567;SDS011;43403;51.948;5.922;2024-03-08T08:28:01;34.33;;;20.10;;
57567;SDS011;43403;51.948;5.922;2024-03-08T08:32:59;33.63;;;18.83;;
57567;SDS011;43403;51.948;5.922;2024-03-08T08:35:27;38.85;;;20.30;;
57567;SDS011;43403;51.948;5.922;2024-03-08T08:37:55;33.70;;;20.80;;
57567;SDS011;43403;51.948;5.922;2024-03-08T08:40:22;33.42;;;21.17;;
57567;SDS011;43403;51.948;5.922;2024-03-08T08:42:51;33.85;;;20.40;;
57567;SDS011;43403;51.948;5.922;2024-03-08T08:45:23;30.52;;;19.45;;
57567;SDS011;43403;51.948;5.922;2024-03-08T08:50:18;30.52;;;19.13;;
57567;SDS011;43403;51.948;5.922;2024-03-08T08:52:52;32.95;;;19.23;;
57567;SDS011;43403;51.948;5.922;2024-03-08T08:55:20;30.27;;;18.93;;
57567;SDS011;43403;51.948;5.922;2024-03-08T08:57:53;34.55;;;19.75;;
57567;SDS011;43403;51.948;5.922;2024-03-08T09:00:19;36.03;;;21.25;;
57567;SDS011;43403;51.948;5.922;2024-03-08T09:02:46;35.67;;;20.00;;
57567;SDS011;43403;51.948;5.922;2024-03-08T09:05:14;35.45;;;20.23;;
57567;SDS011;43403;51.948;5.922;2024-03-08T09:07:43;30.38;;;18.55;;
57567;SDS011;43403;51.948;5.922;2024-03-08T09:10:11;34.45;;;21.42;;
57567;SDS011;43403;51.948;5.922;2024-03-08T09:12:43;36.17;;;21.65;;
57567;SDS011;43403;51.948;5.922;2024-03-08T09:15:10;32.67;;;19.55;;
57567;SDS011;43403;51.948;5.922;2024-03-08T09:17:39;32.20;;;19.55;;
57567;SDS011;43403;51.948;5.922;2024-03-08T09:20:07;27.55;;;18.70;;
57567;SDS011;43403;51.948;5.922;2024-03-08T09:22:35;31.02;;;19.33;;
57567;SDS011;43403;51.948;5.922;2024-03-08T09:25:01;32.33;;;19.98;;
57567;SDS011;43403;51.948;5.922;2024-03-08T09:27:28;28.35;;;17.67;;
57567;SDS011;43403;51.948;5.922;2024-03-08T09:29:54;33.50;;;21.20;;
57567;SDS011;43403;51.948;5.922;2024-03-08T09:32:22;32.42;;;18.58;;
57567;SDS011;43403;51.948;5.922;2024-03-08T09:34:48;29.10;;;17.88;;
57567;SDS011;43403;51.948;5.922;2024-03-08T09:37:16;28.73;;;18.38;;
57567;SDS011;43403;51.948;5.922;2024-03-08T09:39:43;31.65;;;18.42;;
57567;SDS011;43403;51.948;5.922;2024-03-08T09:42:11;28.48;;;18.27;;
57567;SDS011;43403;51.948;5.922;2024-03-08T09:44:46;28.45;;;18.38;;
57567;SDS011;43403;51.948;5.922;2024-03-08T09:47:14;32.10;;;19.02;;
57567;SDS011;43403;51.948;5.922;2024-03-08T09:49:41;32.10;;;19.75;;
57567;SDS011;43403;51.948;5.922;2024-03-08T09:52:08;29.75;;;18.95;;
57567;SDS011;43403;51.948;5.922;2024-03-08T09:54:36;28.20;;;18.95;;
57567;SDS011;43403;51.948;5.922;2024-03-08T09:57:06;28.27;;;19.13;;
57567;SDS011;43403;51.948;5.922;2024-03-08T09:59:34;30.65;;;17.88;;
57567;SDS011;43403;51.948;5.922;2024-03-08T10:02:03;30.33;;;18.42;;
57567;SDS011;43403;51.948;5.922;2024-03-08T10:04:31;34.88;;;18.38;;
57567;SDS011;43403;51.948;5.922;2024-03-08T10:07:00;30.63;;;18.27;;
57567;SDS011;43403;51.948;5.922;2024-03-08T10:09:27;30.75;;;18.25;;
57567;SDS011;43403;51.948;5.922;2024-03-08T10:11:57;27.15;;;17.92;;
57567;SDS011;43403;51.948;5.922;2024-03-08T10:14:26;29.58;;;17.90;;
57567;SDS011;43403;51.948;5.922;2024-03-08T10:16:53;27.40;;;17.17;;
57567;SDS011;43403;51.948;5.922;2024-03-08T10:19:20;26.90;;;17.10;;
57567;SDS011;43403;51.948;5.922;2024-03-08T10:21:49;27.38;;;17.55;;
57567;SDS011;43403;51.948;5.922;2024-03-08T10:24:16;29.15;;;18.23;;
57567;SDS011;43403;51.948;5.922;2024-03-08T10:26:43;27.38;;;17.10;;
57567;SDS011;43403;51.948;5.922;2024-03-08T10:29:10;29.80;;;18.48;;
57567;SDS011;43403;51.948;5.922;2024-03-08T10:31:44;26.52;;;16.80;;
57567;SDS011;43403;51.948;5.922;2024-03-08T10:34:11;27.17;;;17.00;;
57567;SDS011;43403;51.948;5.922;2024-03-08T10:36:38;27.63;;;17.52;;
57567;SDS011;43403;51.948;5.922;2024-03-08T10:39:19;29.77;;;19.15;;
57567;SDS011;43403;51.948;5.922;2024-03-08T10:41:49;29.23;;;18.98;;
57567;SDS011;43403;51.948;5.922;2024-03-08T10:44:26;27.25;;;16.65;;
57567;SDS011;43403;51.948;5.922;2024-03-08T10:47:00;24.53;;;16.70;;
57567;SDS011;43403;51.948;5.922;2024-03-08T10:49:31;24.08;;;15.10;;
57567;SDS011;43403;51.948;5.922;2024-03-08T10:52:02;23.88;;;15.48;;
57567;SDS011;43403;51.948;5.922;2024-03-08T10:56:56;21.45;;;15.13;;
57567;SDS011;43403;51.948;5.922;2024-03-08T10:59:22;24.40;;;16.02;;
57567;SDS011;43403;51.948;5.922;2024-03-08T11:01:49;23.58;;;16.63;;
57567;SDS011;43403;51.948;5.922;2024-03-08T11:04:17;33.05;;;17.15;;
57567;SDS011;43403;51.948;5.922;2024-03-08T11:06:50;22.42;;;15.15;;
57567;SDS011;43403;51.948;5.922;2024-03-08T11:09:28;21.15;;;14.35;;
57567;SDS011;43403;51.948;5.922;2024-03-08T11:14:42;19.98;;;14.20;;
57567;SDS011;43403;51.948;5.922;2024-03-08T11:17:09;25.23;;;16.42;;
57567;SDS011;43403;51.948;5.922;2024-03-08T11:19:36;21.63;;;15.55;;
57567;SDS011;43403;51.948;5.922;2024-03-08T11:22:03;21.10;;;14.52;;
57567;SDS011;43403;51.948;5.922;2024-03-08T11:24:36;22.08;;;15.73;;
57567;SDS011;43403;51.948;5.922;2024-03-08T11:27:04;23.20;;;15.30;;
57567;SDS011;43403;51.948;5.922;2024-03-08T11:34:40;21.40;;;13.48;;
57567;SDS011;43403;51.948;5.922;2024-03-08T11:37:13;22.42;;;14.30;;
57567;SDS011;43403;51.948;5.922;2024-03-08T11:39:47;23.50;;;13.63;;
57567;SDS011;43403;51.948;5.922;2024-03-08T11:42:17;19.70;;;13.95;;
57567;SDS011;43403;51.948;5.922;2024-03-08T11:44:44;21.73;;;14.25;;
57567;SDS011;43403;51.948;5.922;2024-03-08T11:47:11;17.95;;;13.10;;
57567;SDS011;43403;51.948;5.922;2024-03-08T11:49:38;18.10;;;13.10;;
57567;SDS011;43403;51.948;5.922;2024-03-08T11:52:05;20.33;;;13.47;;
57567;SDS011;43403;51.948;5.922;2024-03-08T11:54:32;17.92;;;12.45;;
57567;SDS011;43403;51.948;5.922;2024-03-08T11:57:00;24.20;;;13.82;;
57567;SDS011;43403;51.948;5.922;2024-03-08T11:59:27;20.63;;;12.90;;
57567;SDS011;43403;51.948;5.922;2024-03-08T12:02:04;22.98;;;12.80;;
57567;SDS011;43403;51.948;5.922;2024-03-08T12:04:31;28.40;;;14.57;;
57567;SDS011;43403;51.948;5.922;2024-03-08T12:07:01;21.23;;;14.27;;
57567;SDS011;43403;51.948;5.922;2024-03-08T12:09:35;19.95;;;14.00;;
57567;SDS011;43403;51.948;5.922;2024-03-08T12:12:03;18.05;;;13.50;;
57567;SDS011;43403;51.948;5.922;2024-03-08T12:14:30;19.87;;;14.07;;
57567;SDS011;43403;51.948;5.922;2024-03-08T12:16:58;19.17;;;13.77;;
57567;SDS011;43403;51.948;5.922;2024-03-08T12:19:24;19.90;;;13.80;;
57567;SDS011;43403;51.948;5.922;2024-03-08T12:21:51;18.92;;;13.18;;
57567;SDS011;43403;51.948;5.922;2024-03-08T12:24:17;21.08;;;13.98;;
57567;SDS011;43403;51.948;5.922;2024-03-08T12:26:47;24.17;;;14.23;;
57567;SDS011;43403;51.948;5.922;2024-03-08T12:29:18;21.02;;;14.73;;
57567;SDS011;43403;51.948;5.922;2024-03-08T12:31:47;22.00;;;15.00;;
57567;SDS011;43403;51.948;5.922;2024-03-08T12:34:13;19.55;;;13.93;;
57567;SDS011;43403;51.948;5.922;2024-03-08T12:36:44;18.08;;;13.80;;
57567;SDS011;43403;51.948;5.922;2024-03-08T12:39:11;20.75;;;13.82;;
57567;SDS011;43403;51.948;5.922;2024-03-08T12:41:41;20.73;;;15.23;;
57567;SDS011;43403;51.948;5.922;2024-03-08T12:44:08;18.80;;;13.32;;
57567;SDS011;43403;51.948;5.922;2024-03-08T12:46:37;19.95;;;13.77;;
57567;SDS011;43403;51.948;5.922;2024-03-08T12:49:09;21.30;;;14.43;;
57567;SDS011;43403;51.948;5.922;2024-03-08T12:51:36;19.73;;;13.13;;
57567;SDS011;43403;51.948;5.922;2024-03-08T12:54:05;19.30;;;13.98;;
57567;SDS011;43403;51.948;5.922;2024-03-08T12:56:34;21.20;;;14.27;;
57567;SDS011;43403;51.948;5.922;2024-03-08T12:59:01;20.08;;;14.85;;
57567;SDS011;43403;51.948;5.922;2024-03-08T13:01:27;19.92;;;15.07;;
57567;SDS011;43403;51.948;5.922;2024-03-08T13:03:54;22.38;;;14.93;;
57567;SDS011;43403;51.948;5.922;2024-03-08T13:06:21;22.52;;;15.38;;
57567;SDS011;43403;51.948;5.922;2024-03-08T13:08:51;18.73;;;13.50;;
57567;SDS011;43403;51.948;5.922;2024-03-08T13:11:18;18.38;;;13.32;;
57567;SDS011;43403;51.948;5.922;2024-03-08T13:13:45;19.13;;;14.07;;
57567;SDS011;43403;51.948;5.922;2024-03-08T13:16:12;21.50;;;13.98;;
57567;SDS011;43403;51.948;5.922;2024-03-08T13:18:41;22.75;;;14.40;;
57567;SDS011;43403;51.948;5.922;2024-03-08T13:21:10;23.75;;;15.15;;
57567;SDS011;43403;51.948;5.922;2024-03-08T13:23:37;21.63;;;16.25;;
57567;SDS011;43403;51.948;5.922;2024-03-08T13:26:07;21.05;;;15.40;;
57567;SDS011;43403;51.948;5.922;2024-03-08T13:28:33;21.23;;;14.63;;
57567;SDS011;43403;51.948;5.922;2024-03-08T13:31:04;21.40;;;14.60;;
57567;SDS011;43403;51.948;5.922;2024-03-08T13:33:33;23.45;;;14.63;;
57567;SDS011;43403;51.948;5.922;2024-03-08T13:36:02;20.27;;;14.00;;
57567;SDS011;43403;51.948;5.922;2024-03-08T13:38:32;20.40;;;13.90;;
57567;SDS011;43403;51.948;5.922;2024-03-08T13:40:58;20.80;;;13.05;;
57567;SDS011;43403;51.948;5.922;2024-03-08T13:43:25;20.05;;;15.25;;
57567;SDS011;43403;51.948;5.922;2024-03-08T13:45:51;21.38;;;15.43;;
57567;SDS011;43403;51.948;5.922;2024-03-08T13:48:18;19.30;;;14.23;;
57567;SDS011;43403;51.948;5.922;2024-03-08T13:50:45;22.38;;;15.32;;
57567;SDS011;43403;51.948;5.922;2024-03-08T13:53:11;20.23;;;14.77;;
57567;SDS011;43403;51.948;5.922;2024-03-08T13:55:38;21.70;;;13.40;;
57567;SDS011;43403;51.948;5.922;2024-03-08T13:58:07;19.88;;;14.50;;
57567;SDS011;43403;51.948;5.922;2024-03-08T14:00:36;20.02;;;13.25;;
57567;SDS011;43403;51.948;5.922;2024-03-08T14:03:02;20.70;;;14.23;;
57567;SDS011;43403;51.948;5.922;2024-03-08T14:05:32;21.65;;;14.57;;
57567;SDS011;43403;51.948;5.922;2024-03-08T14:08:01;23.60;;;16.33;;
57567;SDS011;43403;51.948;5.922;2024-03-08T14:10:33;18.55;;;13.70;;
57567;SDS011;43403;51.948;5.922;2024-03-08T14:13:00;20.67;;;13.73;;
57567;SDS011;43403;51.948;5.922;2024-03-08T14:15:31;21.95;;;13.95;;
57567;SDS011;43403;51.948;5.922;2024-03-08T14:17:57;20.65;;;14.68;;
57567;SDS011;43403;51.948;5.922;2024-03-08T14:20:24;18.88;;;13.48;;
57567;SDS011;43403;51.948;5.922;2024-03-08T14:22:53;18.15;;;14.00;;
57567;SDS011;43403;51.948;5.922;2024-03-08T14:25:21;18.35;;;13.65;;
57567;SDS011;43403;51.948;5.922;2024-03-08T14:27:50;19.30;;;14.18;;
57567;SDS011;43403;51.948;5.922;2024-03-08T14:30:20;19.00;;;14.82;;
57567;SDS011;43403;51.948;5.922;2024-03-08T14:32:58;21.02;;;14.25;;
57567;SDS011;43403;51.948;5.922;2024-03-08T14:35:28;21.25;;;14.90;;
57567;SDS011;43403;51.948;5.922;2024-03-08T14:37:56;21.00;;;14.32;;
57567;SDS011;43403;51.948;5.922;2024-03-08T14:40:24;21.63;;;15.35;;
57567;SDS011;43403;51.948;5.922;2024-03-08T14:45:18;20.75;;;15.18;;
57567;SDS011;43403;51.948;5.922;2024-03-08T14:47:46;20.67;;;15.03;;
57567;SDS011;43403;51.948;5.922;2024-03-08T14:50:16;23.67;;;15.75;;